Terminal Aerodrome Forecast
Issued by NWS Green Bay, WI

Home | Current Version | Previous Version | Graphics & Text | Print | Product List | Glossary On
Versions: 1 2 3 4 5 6 7 8 9 10 11 12 13 14 15 16
000
FTUS43 KGRB 191732
TAFGRB
TAF
KGRB 191732Z 1918/2018 25009G16KT P6SM SKC
     FM192200 21006KT P6SM SKC
     FM200600 20004KT P6SM SKC WS020/24035KT
     FM201100 20005KT P6SM SKC
     FM201600 20010G16KT P6SM SKC=

USA.gov is the U.S. government's official web portal to all federal, state and local government web resources and services.